Time;durP1;ratioP1;P1;durP2;ratioP2;P2;SDS_P1;SDS_P2;PMS_P1;PMS_P2;Temp;Humidity;BMP_temperature;BMP_pressure;BME280_temperature;BME280_humidity;BME280_pressure;Samples;Min_cycle;Max_cycle;Signal;HPM_P1;HPM_P2
2023/01/19 00:01:33;;;;;;;4.10;1.30;;;4.10;99.90;;;;;;6303332;22;39897;-74
2023/01/19 00:03:59;;;;;;;6.93;1.60;;;4.10;99.90;;;;;;6301646;22;38471;-74
2023/01/19 00:06:26;;;;;;;4.40;1.77;;;4.20;99.90;;;;;;6296793;22;36343;-75
2023/01/19 00:08:52;;;;;;;7.60;1.70;;;4.10;99.90;;;;;;6304598;22;38664;-74
2023/01/19 00:11:18;;;;;;;9.37;1.83;;;4.10;99.90;;;;;;6305403;22;39454;-75
2023/01/19 00:13:48;;;;;;;4.73;1.67;;;4.00;99.90;;;;;;6299997;22;37928;-75
2023/01/19 00:16:20;;;;;;;7.83;1.97;;;4.00;99.90;;;;;;6303734;22;37220;-75
2023/01/19 00:18:46;;;;;;;5.80;2.00;;;4.10;99.90;;;;;;6305479;22;38014;-74
2023/01/19 00:21:13;;;;;;;4.80;1.93;;;4.20;99.90;;;;;;6302269;22;39154;-74
2023/01/19 00:23:40;;;;;;;9.63;2.90;;;4.30;99.90;;;;;;6302238;22;37903;-74
2023/01/19 00:26:07;;;;;;;12.17;2.07;;;4.30;99.90;;;;;;6297188;22;37585;-74
2023/01/19 00:28:33;;;;;;;7.53;1.83;;;4.40;99.90;;;;;;6301323;22;39048;-74
2023/01/19 00:30:59;;;;;;;4.43;1.10;;;4.40;99.90;;;;;;6301229;22;38514;-74
2023/01/19 00:33:25;;;;;;;7.67;1.53;;;4.30;99.90;;;;;;6298863;22;38228;-73
2023/01/19 00:35:53;;;;;;;2.40;0.83;;;4.20;99.90;;;;;;6302814;22;37734;-74
2023/01/19 00:38:20;;;;;;;3.77;1.23;;;4.00;99.90;;;;;;6300076;22;37926;-74
2023/01/19 00:40:47;;;;;;;4.20;1.10;;;4.00;99.90;;;;;;6296577;22;37426;-74
2023/01/19 00:43:13;;;;;;;4.07;1.07;;;4.00;99.90;;;;;;6300605;22;38080;-74
2023/01/19 00:45:39;;;;;;;11.40;1.10;;;4.00;99.90;;;;;;6301638;22;36194;-74
2023/01/19 00:48:05;;;;;;;4.93;0.93;;;4.00;99.90;;;;;;6294783;22;39439;-74
2023/01/19 00:50:31;;;;;;;6.00;0.80;;;4.10;99.90;;;;;;6299504;22;38703;-74
2023/01/19 00:52:59;;;;;;;10.53;1.10;;;4.20;99.90;;;;;;6304011;22;38880;-74
2023/01/19 00:55:29;;;;;;;8.30;1.10;;;4.30;99.90;;;;;;6297741;22;37393;-74
2023/01/19 00:57:57;;;;;;;8.17;0.90;;;4.40;99.90;;;;;;6299369;22;37965;-74
2023/01/19 01:00:25;;;;;;;8.53;0.80;;;4.40;99.90;;;;;;6299244;22;37456;-73
2023/01/19 01:02:52;;;;;;;12.03;0.77;;;4.40;99.90;;;;;;6298868;22;38202;-74
2023/01/19 01:05:19;;;;;;;3.33;0.53;;;4.40;99.90;;;;;;6299558;22;37128;-73
2023/01/19 01:07:45;;;;;;;3.27;0.60;;;4.30;99.90;;;;;;6302312;22;39948;-74
2023/01/19 01:10:18;;;;;;;4.87;0.70;;;4.20;99.90;;;;;;6298942;22;38193;-74
2023/01/19 01:12:44;;;;;;;7.47;1.38;;;4.20;99.90;;;;;;6302996;22;38331;-73
2023/01/19 01:15:12;;;;;;;3.43;1.07;;;4.20;99.90;;;;;;6296060;22;36382;-73
2023/01/19 01:17:45;;;;;;;5.63;1.40;;;4.20;99.90;;;;;;6303069;22;38689;-74
2023/01/19 01:20:16;;;;;;;7.03;1.63;;;4.20;99.90;;;;;;6300487;22;38783;-73
2023/01/19 01:22:48;;;;;;;8.97;1.43;;;4.20;99.90;;;;;;6299165;22;37905;-75
2023/01/19 01:25:16;;;;;;;12.98;1.52;;;4.20;99.90;;;;;;6296299;22;36001;-74
2023/01/19 01:27:43;;;;;;;8.80;1.30;;;4.20;99.90;;;;;;6299145;22;37335;-74
2023/01/19 01:30:11;;;;;;;16.97;2.30;;;4.20;99.90;;;;;;6298880;22;39179;-74
2023/01/19 01:32:38;;;;;;;10.70;1.97;;;4.20;99.90;;;;;;6300533;22;37584;-75
2023/01/19 01:35:05;;;;;;;13.70;1.87;;;4.20;99.90;;;;;;6299284;22;37874;-74
2023/01/19 01:37:31;;;;;;;12.30;2.00;;;4.30;99.90;;;;;;6299886;22;47088;-74
2023/01/19 01:39:57;;;;;;;8.83;1.67;;;4.20;99.90;;;;;;6304819;22;38479;-74
2023/01/19 01:42:27;;;;;;;13.97;2.70;;;4.20;99.90;;;;;;6302137;22;37362;-74
2023/01/19 01:44:55;;;;;;;8.70;1.70;;;4.20;99.90;;;;;;6307604;22;37722;-75
2023/01/19 01:47:53;;;;;;;8.77;1.33;;;4.10;99.90;;;;;;6304570;22;37891;-74
2023/01/19 01:50:30;;;;;;;5.37;1.13;;;4.20;99.90;;;;;;6295523;22;37224;-74
2023/01/19 01:53:10;;;;;;;5.37;1.27;;;4.10;99.90;;;;;;6310135;22;36755;-74
2023/01/19 01:55:47;;;;;;;5.37;0.93;;;4.10;99.90;;;;;;6308408;22;47484;-74
2023/01/19 01:58:15;;;;;;;12.13;1.20;;;4.10;99.90;;;;;;6310549;22;39691;-74
2023/01/19 02:03:17;;;;;;;6.37;1.00;;;4.00;99.90;;;;;;6283132;22;20026;-76
2023/01/19 02:05:44;;;;;;;10.67;1.10;;;3.80;99.90;;;;;;6300066;22;37771;-75
2023/01/19 02:13:50;;;;;;;4.13;1.13;;;3.40;99.90;;;;;;6297224;22;39687;-75
2023/01/19 02:16:16;;;;;;;7.73;1.33;;;3.30;99.90;;;;;;6301589;22;35882;-75
2023/01/19 02:18:44;;;;;;;11.60;1.60;;;3.20;99.90;;;;;;6303646;22;38736;-75
2023/01/19 02:21:19;;;;;;;6.63;1.43;;;3.00;99.90;;;;;;6299371;22;37561;-75
2023/01/19 02:23:57;;;;;;;4.43;0.80;;;2.80;99.90;;;;;;6302701;22;37917;-76
2023/01/19 02:26:32;;;;;;;2.97;0.43;;;2.80;99.90;;;;;;6301055;22;36428;-74
2023/01/19 02:29:06;;;;;;;3.20;1.00;;;2.90;99.90;;;;;;6305535;22;38906;-76
2023/01/19 02:31:34;;;;;;;3.87;0.80;;;3.00;99.90;;;;;;6301934;22;47366;-75
2023/01/19 02:34:01;;;;;;;7.27;1.03;;;3.00;99.90;;;;;;6303731;22;38291;-74
2023/01/19 02:36:39;;;;;;;11.67;1.03;;;3.10;99.90;;;;;;6300390;22;49558;-74
2023/01/19 02:39:06;;;;;;;3.23;0.53;;;3.10;99.90;;;;;;6299665;22;38402;-73
2023/01/19 02:41:43;;;;;;;4.17;0.60;;;3.00;99.90;;;;;;6305856;22;38958;-74
2023/01/19 02:44:11;;;;;;;6.40;0.83;;;3.00;99.90;;;;;;6296540;22;38789;-75
2023/01/19 02:46:37;;;;;;;7.83;0.70;;;3.10;99.90;;;;;;6304810;22;37583;-75
2023/01/19 02:49:04;;;;;;;4.17;0.67;;;3.10;99.90;;;;;;6302767;22;38271;-76
2023/01/19 02:51:31;;;;;;;10.23;1.00;;;3.20;99.90;;;;;;6302204;22;37778;-74
2023/01/19 02:54:27;;;;;;;7.00;0.70;;;3.20;99.90;;;;;;6299727;22;38184;-75
2023/01/19 02:57:25;;;;;;;8.17;0.80;;;3.20;99.90;;;;;;6305299;22;49017;-76
2023/01/19 03:00:12;;;;;;;9.73;1.07;;;3.10;99.90;;;;;;6300997;22;48660;-76
2023/01/19 03:03:12;;;;;;;7.07;1.03;;;2.70;99.90;;;;;;6288404;22;48150;-76
2023/01/19 03:06:00;;;;;;;6.37;0.63;;;2.50;99.90;;;;;;6300123;22;47204;-76
2023/01/19 03:08:57;;;;;;;5.07;0.80;;;2.50;99.90;;;;;;6303464;22;40156;-75
2023/01/19 03:11:26;;;;;;;6.87;1.27;;;2.60;99.90;;;;;;6302957;22;38690;-75
2023/01/19 03:14:07;;;;;;;8.93;1.37;;;2.80;99.90;;;;;;6303804;22;37751;-76
2023/01/19 03:16:55;;;;;;;10.57;1.40;;;2.90;99.90;;;;;;6305264;22;48836;-75
2023/01/19 03:19:26;;;;;;;14.50;2.37;;;3.00;99.90;;;;;;6304046;22;37560;-76
2023/01/19 03:21:57;;;;;;;13.53;2.10;;;3.10;99.90;;;;;;6305506;22;37812;-75
2023/01/19 03:24:27;;;;;;;10.47;2.20;;;3.20;99.90;;;;;;6305113;22;38731;-75
2023/01/19 03:26:57;;;;;;;11.57;2.83;;;3.30;99.90;;;;;;6308725;22;38316;-76
2023/01/19 03:29:27;;;;;;;10.70;1.37;;;3.40;99.90;;;;;;6303674;22;38019;-75
2023/01/19 03:31:56;;;;;;;11.90;1.90;;;3.50;99.90;;;;;;6304999;22;37983;-76
2023/01/19 03:34:23;;;;;;;5.90;1.00;;;3.50;99.90;;;;;;6302771;22;37915;-76
2023/01/19 03:36:52;;;;;;;8.63;1.30;;;3.50;99.90;;;;;;6305856;22;39011;-75
2023/01/19 03:39:24;;;;;;;7.20;1.10;;;3.40;99.90;;;;;;6307099;22;37507;-76
2023/01/19 03:41:57;;;;;;;15.70;2.20;;;3.40;99.90;;;;;;6306819;22;38381;-76
2023/01/19 03:44:27;;;;;;;11.60;1.30;;;3.40;99.90;;;;;;6301550;22;38696;-77
2023/01/19 03:46:55;;;;;;;9.53;1.20;;;3.40;99.90;;;;;;6310601;22;38366;-76
2023/01/19 03:49:21;;;;;;;11.77;1.30;;;3.40;99.90;;;;;;6309670;22;37383;-76
2023/01/19 03:51:47;;;;;;;7.67;1.57;;;3.50;99.90;;;;;;6310603;22;38760;-77
2023/01/19 03:54:13;;;;;;;14.30;2.20;;;3.50;99.90;;;;;;6303555;22;38466;-77
2023/01/19 03:56:39;;;;;;;9.30;1.20;;;3.50;99.90;;;;;;6306887;22;38225;-77
2023/01/19 03:59:06;;;;;;;14.77;1.50;;;3.50;99.90;;;;;;6304550;22;38222;-76
2023/01/19 04:01:32;;;;;;;18.23;3.40;;;3.60;99.90;;;;;;6307844;22;38855;-77
2023/01/19 04:03:58;;;;;;;16.10;1.77;;;3.60;99.90;;;;;;6305900;22;37185;-77
2023/01/19 04:06:24;;;;;;;11.00;1.90;;;3.70;99.90;;;;;;6312437;22;38160;-76
2023/01/19 04:08:50;;;;;;;14.80;1.87;;;3.70;99.90;;;;;;6310670;22;38188;-76
2023/01/19 04:11:16;;;;;;;12.47;1.57;;;3.80;99.90;;;;;;6313124;22;38319;-76
2023/01/19 04:13:43;;;;;;;16.43;2.30;;;3.90;99.90;;;;;;6313522;22;39291;-77
2023/01/19 04:16:10;;;;;;;12.10;1.60;;;3.90;99.90;;;;;;6308594;22;36813;-76
2023/01/19 04:18:36;;;;;;;18.63;2.70;;;4.00;99.90;;;;;;6311644;22;36070;-76
2023/01/19 04:21:05;;;;;;;20.77;2.73;;;4.00;99.90;;;;;;6311393;22;38876;-76
2023/01/19 04:23:32;;;;;;;10.57;1.80;;;4.00;99.90;;;;;;6310438;22;37152;-76
2023/01/19 04:26:06;;;;;;;9.47;1.67;;;4.00;99.90;;;;;;6310333;22;36859;-76
2023/01/19 04:28:35;;;;;;;13.23;1.30;;;4.00;99.90;;;;;;6302059;22;47046;-77
2023/01/19 04:31:02;;;;;;;12.03;2.10;;;4.00;99.90;;;;;;6310240;22;37558;-76
2023/01/19 04:33:28;;;;;;;14.17;2.53;;;3.90;99.90;;;;;;6309282;22;36963;-77
2023/01/19 04:35:54;;;;;;;14.33;2.30;;;3.90;99.90;;;;;;6306207;22;37455;-76
2023/01/19 04:38:22;;;;;;;12.20;2.03;;;3.90;99.90;;;;;;6303906;22;37172;-78
2023/01/19 04:40:49;;;;;;;11.57;1.80;;;3.90;99.90;;;;;;6301898;22;38698;-77
2023/01/19 04:43:16;;;;;;;7.60;1.53;;;3.80;99.90;;;;;;6300420;22;39378;-76
2023/01/19 04:45:43;;;;;;;13.00;1.57;;;3.80;99.90;;;;;;6306931;22;37139;-77
2023/01/19 04:48:11;;;;;;;16.07;2.00;;;3.80;99.90;;;;;;6300052;22;36125;-76
2023/01/19 04:50:37;;;;;;;12.90;2.63;;;3.90;99.90;;;;;;6302847;22;38588;-77
2023/01/19 04:53:03;;;;;;;11.43;1.60;;;4.00;99.90;;;;;;6303967;22;38480;-77
2023/01/19 04:55:29;;;;;;;21.80;2.60;;;4.00;99.90;;;;;;6300677;22;38572;-77
2023/01/19 04:57:55;;;;;;;15.70;2.40;;;4.10;99.90;;;;;;6303364;22;36408;-77
2023/01/19 05:00:22;;;;;;;22.63;2.47;;;4.20;99.90;;;;;;6255558;22;38153;-76
2023/01/19 05:02:48;;;;;;;26.80;3.10;;;4.40;99.90;;;;;;6304806;22;39176;-77
2023/01/19 05:05:15;;;;;;;19.03;2.20;;;4.50;99.90;;;;;;6303367;22;38052;-77
2023/01/19 05:07:42;;;;;;;25.47;3.40;;;4.60;99.90;;;;;;6302106;22;36467;-76
2023/01/19 05:10:09;;;;;;;24.10;3.10;;;4.60;99.90;;;;;;6301001;22;37669;-74
2023/01/19 05:12:35;;;;;;;23.63;3.60;;;4.70;99.90;;;;;;6304424;22;38678;-77
2023/01/19 05:15:02;;;;;;;23.10;3.27;;;4.80;99.90;;;;;;6301644;22;36942;-76
2023/01/19 05:17:28;;;;;;;22.40;3.77;;;5.00;99.90;;;;;;6301193;22;37206;-76
2023/01/19 05:19:54;;;;;;;29.90;4.20;;;5.00;99.90;;;;;;6305697;22;39730;-77
2023/01/19 05:22:20;;;;;;;39.87;4.33;;;5.00;99.90;;;;;;6286370;22;39775;-76
2023/01/19 05:24:46;;;;;;;22.53;2.83;;;5.00;99.90;;;;;;6300218;22;36913;-76
2023/01/19 05:27:12;;;;;;;22.67;2.90;;;5.00;99.90;;;;;;6301498;22;36091;-76
2023/01/19 05:29:38;;;;;;;32.00;4.30;;;5.00;99.90;;;;;;6302127;22;38596;-76
2023/01/19 05:32:05;;;;;;;21.80;3.57;;;5.00;99.90;;;;;;6300996;22;38243;-76
2023/01/19 05:34:31;;;;;;;29.10;4.33;;;5.00;99.90;;;;;;6296723;22;37092;-76
2023/01/19 05:36:57;;;;;;;22.90;4.17;;;5.00;99.90;;;;;;6306222;22;37218;-78
2023/01/19 05:39:24;;;;;;;28.50;3.67;;;5.10;99.90;;;;;;6303538;22;38819;-77
2023/01/19 05:41:51;;;;;;;29.87;3.83;;;5.00;99.90;;;;;;6303145;22;38321;-77
2023/01/19 05:44:17;;;;;;;25.60;3.90;;;5.10;99.90;;;;;;6301864;22;38143;-76
2023/01/19 05:46:43;;;;;;;29.50;3.77;;;5.20;99.90;;;;;;6304099;22;37193;-77
2023/01/19 05:49:10;;;;;;;18.37;3.37;;;5.10;99.90;;;;;;6271391;22;38905;-77
2023/01/19 05:51:37;;;;;;;19.30;3.53;;;5.10;99.90;;;;;;6304708;22;36877;-77
2023/01/19 05:54:07;;;;;;;26.07;4.20;;;4.90;99.90;;;;;;6305504;22;38248;-77
2023/01/19 05:56:34;;;;;;;23.73;3.80;;;4.80;99.90;;;;;;6302811;22;36321;-76
2023/01/19 05:59:01;;;;;;;19.17;3.27;;;4.90;99.90;;;;;;6304602;22;37657;-76
2023/01/19 06:01:27;;;;;;;14.77;3.37;;;5.00;99.90;;;;;;6306167;22;49038;-77
2023/01/19 06:03:54;;;;;;;23.23;3.07;;;5.10;99.90;;;;;;6304866;22;38790;-76
2023/01/19 06:06:23;;;;;;;18.50;3.27;;;5.00;99.90;;;;;;6288284;22;38233;-76
2023/01/19 06:08:49;;;;;;;25.77;3.00;;;5.00;99.90;;;;;;6283593;22;39851;-76
2023/01/19 06:11:15;;;;;;;18.23;2.53;;;5.00;99.90;;;;;;6303438;22;38830;-76
2023/01/19 06:13:41;;;;;;;19.90;3.10;;;5.00;99.90;;;;;;6305242;22;39608;-76
2023/01/19 06:16:08;;;;;;;20.60;2.80;;;5.00;99.90;;;;;;6304818;22;37230;-76
2023/01/19 06:18:34;;;;;;;16.60;2.67;;;4.90;99.90;;;;;;6299117;22;37691;-76
2023/01/19 06:21:08;;;;;;;16.73;2.90;;;4.80;99.90;;;;;;6302579;22;37061;-76
2023/01/19 06:23:35;;;;;;;17.07;2.47;;;4.70;99.90;;;;;;6304709;22;49006;-77
2023/01/19 06:26:02;;;;;;;21.50;3.00;;;4.60;99.90;;;;;;6302069;22;36708;-77
2023/01/19 06:28:28;;;;;;;15.73;3.00;;;4.60;99.90;;;;;;6303647;22;39138;-76
2023/01/19 06:30:55;;;;;;;19.03;3.97;;;4.50;99.90;;;;;;6307402;22;38735;-77
2023/01/19 06:33:24;;;;;;;20.60;3.37;;;4.50;99.90;;;;;;6301623;22;37803;-76
2023/01/19 06:35:51;;;;;;;19.07;2.37;;;4.50;99.90;;;;;;6308856;22;37357;-78
2023/01/19 06:38:18;;;;;;;16.07;2.30;;;4.50;99.90;;;;;;6305017;22;37987;-78
2023/01/19 06:40:57;;;;;;;14.17;1.90;;;4.50;99.90;;;;;;6305794;22;38348;-76
2023/01/19 06:43:23;;;;;;;12.43;2.80;;;4.50;99.90;;;;;;6308625;22;39223;-77
2023/01/19 06:45:50;;;;;;;21.30;2.57;;;4.50;99.90;;;;;;6308110;22;36162;-77
2023/01/19 06:48:17;;;;;;;13.27;2.20;;;4.40;99.90;;;;;;6307961;22;39059;-77
2023/01/19 06:50:47;;;;;;;16.63;3.07;;;4.40;99.90;;;;;;6307426;22;39146;-77
2023/01/19 06:53:15;;;;;;;16.43;3.27;;;4.40;99.90;;;;;;6306147;22;37067;-77
2023/01/19 06:55:42;;;;;;;20.13;2.00;;;4.50;99.90;;;;;;6307862;22;36242;-76
2023/01/19 06:58:09;;;;;;;18.10;2.83;;;4.50;99.90;;;;;;6305663;22;38718;-76
2023/01/19 07:00:35;;;;;;;16.50;2.43;;;4.50;99.90;;;;;;6308405;22;38028;-76
2023/01/19 07:03:01;;;;;;;23.43;2.80;;;4.50;99.90;;;;;;6309256;22;37990;-75
2023/01/19 07:05:28;;;;;;;18.70;3.00;;;4.40;99.90;;;;;;6312002;22;37207;-78
2023/01/19 07:07:55;;;;;;;19.40;3.03;;;4.40;99.90;;;;;;6309891;22;38801;-75
2023/01/19 07:10:22;;;;;;;16.50;2.23;;;4.40;99.90;;;;;;6306068;22;37424;-77
2023/01/19 07:12:48;;;;;;;20.23;2.63;;;4.50;99.90;;;;;;6309887;22;38073;-76
2023/01/19 07:15:18;;;;;;;24.83;2.90;;;4.50;99.90;;;;;;6310259;22;37324;-76
2023/01/19 07:17:44;;;;;;;19.40;2.33;;;4.40;99.90;;;;;;6312483;22;38436;-76
2023/01/19 07:20:13;;;;;;;21.00;2.50;;;4.50;99.90;;;;;;6308991;22;37086;-76
2023/01/19 07:22:44;;;;;;;20.07;2.97;;;4.50;99.90;;;;;;6310585;22;38537;-76
2023/01/19 07:25:10;;;;;;;19.20;2.77;;;4.60;99.90;;;;;;6308266;22;36281;-76
2023/01/19 07:27:36;;;;;;;17.23;2.63;;;4.50;99.90;;;;;;6313131;22;39644;-75
2023/01/19 07:30:03;;;;;;;13.20;2.10;;;4.50;99.90;;;;;;6310169;22;38420;-76
2023/01/19 07:32:29;;;;;;;18.03;2.80;;;4.40;99.90;;;;;;6310592;22;38516;-76
2023/01/19 07:34:55;;;;;;;18.37;2.83;;;4.50;99.90;;;;;;6311607;22;37244;-76
2023/01/19 07:37:21;;;;;;;17.53;2.43;;;4.40;99.90;;;;;;6316316;22;39569;-78
2023/01/19 07:39:47;;;;;;;18.47;2.43;;;4.40;99.90;;;;;;6313068;22;37118;-75
2023/01/19 07:42:14;;;;;;;18.27;2.47;;;4.40;99.90;;;;;;6309458;22;36597;-76
2023/01/19 07:44:40;;;;;;;14.63;2.73;;;4.20;99.90;;;;;;6310623;22;36153;-75
2023/01/19 07:47:07;;;;;;;20.27;3.23;;;4.20;99.90;;;;;;6312354;22;38584;-75
2023/01/19 07:49:35;;;;;;;18.93;2.80;;;4.10;99.90;;;;;;6311011;22;37220;-75
2023/01/19 07:52:01;;;;;;;14.87;2.33;;;4.10;99.90;;;;;;6311231;22;38060;-75
2023/01/19 07:54:27;;;;;;;22.03;3.03;;;4.10;99.90;;;;;;6311201;22;49072;-76
2023/01/19 07:56:53;;;;;;;14.47;2.03;;;4.10;99.90;;;;;;6309675;22;38678;-75
2023/01/19 07:59:20;;;;;;;13.13;2.07;;;4.10;99.90;;;;;;6310358;22;38948;-76
2023/01/19 08:01:46;;;;;;;14.17;2.13;;;4.10;99.90;;;;;;6312194;22;37936;-74
2023/01/19 08:04:12;;;;;;;17.07;2.27;;;4.10;99.90;;;;;;6314173;22;37485;-75
2023/01/19 08:06:39;;;;;;;13.80;2.03;;;4.10;99.90;;;;;;6317002;22;39817;-75
2023/01/19 08:09:05;;;;;;;17.13;2.50;;;4.00;99.90;;;;;;6313274;22;37281;-75
2023/01/19 08:11:32;;;;;;;25.63;3.43;;;4.00;99.90;;;;;;6314206;22;36934;-75
2023/01/19 08:13:59;;;;;;;13.23;2.00;;;4.10;99.90;;;;;;6306676;22;36402;-74
2023/01/19 08:16:26;;;;;;;10.77;1.90;;;4.10;99.90;;;;;;6311253;22;38622;-76
2023/01/19 08:18:53;;;;;;;13.83;3.60;;;4.10;99.90;;;;;;6315729;22;38741;-76
2023/01/19 08:21:19;;;;;;;12.67;1.50;;;4.00;99.90;;;;;;6314411;22;39231;-76
2023/01/19 08:23:55;;;;;;;11.77;1.83;;;4.00;99.90;;;;;;6314335;22;38941;-76
2023/01/19 08:26:30;;;;;;;14.00;2.07;;;4.00;99.90;;;;;;6311721;22;38703;-76
2023/01/19 08:28:57;;;;;;;16.73;2.83;;;4.00;99.90;;;;;;6314549;22;38328;-75
2023/01/19 08:31:24;;;;;;;10.03;1.90;;;3.90;99.90;;;;;;6308631;22;36825;-76
2023/01/19 08:33:50;;;;;;;9.20;1.53;;;3.90;99.90;;;;;;6303277;22;37897;-77
2023/01/19 08:36:16;;;;;;;8.10;1.27;;;4.00;99.90;;;;;;6306063;22;38901;-76
2023/01/19 08:38:44;;;;;;;11.17;1.40;;;4.00;99.90;;;;;;6308822;22;38125;-76
2023/01/19 08:41:11;;;;;;;14.83;1.50;;;4.10;99.90;;;;;;6307349;22;39105;-77
2023/01/19 08:43:37;;;;;;;13.83;1.37;;;4.00;99.90;;;;;;6303501;22;35798;-76
2023/01/19 08:46:03;;;;;;;8.90;1.37;;;4.00;99.90;;;;;;6305399;22;37677;-74
2023/01/19 08:48:30;;;;;;;6.40;1.83;;;4.00;99.90;;;;;;6308502;22;38433;-75
2023/01/19 08:50:57;;;;;;;15.20;2.37;;;4.00;99.90;;;;;;6306382;22;37050;-75
2023/01/19 08:53:24;;;;;;;12.23;1.60;;;4.20;99.90;;;;;;6303075;22;37414;-77
2023/01/19 08:55:56;;;;;;;12.23;2.07;;;4.20;99.90;;;;;;6305001;22;38091;-78
2023/01/19 08:58:23;;;;;;;13.82;1.77;;;4.20;99.90;;;;;;6303754;22;37475;-75
2023/01/19 09:00:51;;;;;;;14.70;2.60;;;4.20;99.90;;;;;;6306046;22;36934;-76
2023/01/19 09:03:18;;;;;;;10.27;1.83;;;4.30;99.90;;;;;;6303367;22;36253;-75
2023/01/19 09:05:44;;;;;;;11.10;2.87;;;4.20;99.90;;;;;;6308241;22;39652;-78
2023/01/19 09:08:12;;;;;;;17.17;1.93;;;4.30;99.90;;;;;;6303065;22;37308;-76
2023/01/19 09:10:43;;;;;;;13.23;1.73;;;4.30;99.90;;;;;;6310072;22;38384;-80
2023/01/19 09:13:12;;;;;;;9.80;2.53;;;4.30;99.90;;;;;;6312041;22;37086;-77
2023/01/19 09:15:39;;;;;;;6.90;1.80;;;4.40;99.90;;;;;;6305446;22;38706;-75
2023/01/19 09:18:12;;;;;;;13.07;4.10;;;4.40;99.90;;;;;;6302623;22;37866;-76
2023/01/19 09:20:49;;;;;;;9.98;1.50;;;4.50;99.90;;;;;;6306107;22;36981;-76
2023/01/19 09:23:17;;;;;;;13.60;2.20;;;4.50;99.90;;;;;;6307380;22;38079;-76
2023/01/19 09:25:46;;;;;;;21.27;2.47;;;4.50;99.90;;;;;;6307176;22;37808;-76
2023/01/19 09:28:14;;;;;;;10.00;1.60;;;4.60;99.90;;;;;;6305254;22;38222;-76
2023/01/19 09:30:41;;;;;;;13.83;1.53;;;4.60;99.90;;;;;;6306597;22;36940;-75
2023/01/19 09:33:16;;;;;;;9.67;2.00;;;4.60;99.90;;;;;;6320088;22;36719;-78
2023/01/19 09:35:44;;;;;;;9.87;1.30;;;4.70;99.90;;;;;;6309305;22;38455;-77
2023/01/19 09:38:10;;;;;;;6.10;1.37;;;4.70;99.90;;;;;;6304716;22;37291;-76
2023/01/19 09:40:48;;;;;;;10.70;1.50;;;4.80;99.90;;;;;;6306695;22;37003;-75
2023/01/19 09:43:29;;;;;;;3.47;1.30;;;4.70;99.90;;;;;;6304452;22;37054;-76
2023/01/19 09:46:16;;;;;;;11.27;1.83;;;4.70;99.90;;;;;;6308443;22;38332;-76
2023/01/19 09:48:53;;;;;;;8.80;1.70;;;4.70;99.90;;;;;;6308268;22;48366;-76
2023/01/19 09:51:25;;;;;;;9.53;1.30;;;4.70;99.90;;;;;;6305673;22;38021;-76
2023/01/19 09:54:14;;;;;;;6.10;1.10;;;4.80;99.90;;;;;;6310181;22;37728;-77
2023/01/19 09:56:42;;;;;;;7.10;0.90;;;5.00;99.90;;;;;;6306159;22;48370;-77
2023/01/19 09:59:19;;;;;;;4.40;0.90;;;5.10;99.90;;;;;;6305484;22;37329;-76
2023/01/19 10:02:20;;;;;;;3.87;0.80;;;5.10;99.90;;;;;;6309161;22;38921;-77
2023/01/19 10:05:16;;;;;;;4.17;0.90;;;5.20;99.90;;;;;;6308013;22;49191;-77
2023/01/19 10:08:02;;;;;;;5.43;1.00;;;5.40;99.90;;;;;;6309440;22;48313;-78
2023/01/19 10:10:31;;;;;;;5.10;1.07;;;5.50;99.90;;;;;;6303089;22;47282;-76
2023/01/19 10:13:21;;;;;;;6.63;0.90;;;5.60;99.90;;;;;;6308026;22;37015;-77
2023/01/19 10:16:13;;;;;;;6.20;0.90;;;5.60;99.90;;;;;;6306295;22;47463;-77
2023/01/19 10:18:47;;;;;;;3.17;0.83;;;5.70;99.90;;;;;;6308465;22;49205;-77
2023/01/19 10:21:18;;;;;;;6.07;0.80;;;5.70;99.90;;;;;;6309053;22;39589;-76
2023/01/19 10:23:59;;;;;;;4.60;1.00;;;5.70;99.90;;;;;;6308479;22;37178;-76
2023/01/19 10:26:40;;;;;;;6.03;1.10;;;5.80;99.90;;;;;;6307949;22;36585;-77
2023/01/19 10:29:18;;;;;;;7.87;0.87;;;5.80;99.90;;;;;;6306131;22;39193;-75
2023/01/19 10:31:45;;;;;;;10.00;0.90;;;5.70;99.90;;;;;;6309200;22;39231;-76
2023/01/19 10:34:17;;;;;;;6.77;1.43;;;5.80;99.90;;;;;;6305315;22;37140;-75
2023/01/19 10:36:46;;;;;;;2.73;1.00;;;5.80;99.90;;;;;;6309936;22;37435;-79
2023/01/19 10:39:16;;;;;;;5.97;0.80;;;5.90;99.90;;;;;;6304631;22;40349;-77
2023/01/19 10:41:51;;;;;;;9.27;1.07;;;5.90;99.90;;;;;;6309243;22;39566;-76
2023/01/19 10:44:25;;;;;;;5.80;0.70;;;5.90;99.90;;;;;;6299179;22;38881;-77
2023/01/19 10:46:54;;;;;;;1.53;0.53;;;6.00;99.90;;;;;;6303863;22;38601;-76
2023/01/19 10:49:35;;;;;;;2.37;0.60;;;6.00;99.90;;;;;;6300503;22;39075;-77
2023/01/19 10:52:03;;;;;;;3.50;0.50;;;6.00;99.90;;;;;;6304934;22;38130;-76
2023/01/19 10:54:31;;;;;;;4.17;1.00;;;6.10;99.90;;;;;;6304818;22;38066;-77
2023/01/19 10:57:03;;;;;;;5.10;1.10;;;6.20;99.90;;;;;;6306268;22;38938;-77
2023/01/19 10:59:36;;;;;;;4.13;0.95;;;6.20;99.90;;;;;;6298894;22;47337;-77
2023/01/19 11:02:17;;;;;;;3.25;0.57;;;6.20;99.90;;;;;;6303334;22;38984;-77
2023/01/19 11:04:44;;;;;;;2.20;0.70;;;6.20;99.90;;;;;;6306399;22;38086;-77
2023/01/19 11:07:26;;;;;;;6.40;1.13;;;6.00;99.90;;;;;;6300689;22;36096;-77
2023/01/19 11:10:14;;;;;;;4.43;0.77;;;6.00;99.90;;;;;;6303656;22;37885;-77
2023/01/19 11:13:00;;;;;;;3.97;0.87;;;6.00;99.90;;;;;;6303840;22;49702;-77
2023/01/19 11:15:49;;;;;;;10.00;1.23;;;6.00;99.90;;;;;;6303047;22;39159;-77
2023/01/19 11:18:42;;;;;;;5.57;1.87;;;5.90;99.90;;;;;;6295632;22;35912;-78
2023/01/19 11:21:11;;;;;;;9.07;1.08;;;5.90;99.90;;;;;;6296472;22;38147;-78
2023/01/19 11:23:51;;;;;;;2.47;0.60;;;5.90;99.90;;;;;;6303732;22;37378;-77
2023/01/19 11:26:39;;;;;;;4.47;1.00;;;6.00;99.90;;;;;;6305568;22;38851;-77
2023/01/19 11:29:15;;;;;;;6.30;0.90;;;6.00;99.90;;;;;;6301714;22;37908;-77
2023/01/19 11:31:42;;;;;;;2.33;0.53;;;6.00;99.90;;;;;;6303094;22;37961;-77
2023/01/19 11:34:38;;;;;;;6.67;0.80;;;6.00;99.90;;;;;;6304875;22;38114;-77
2023/01/19 11:37:29;;;;;;;2.70;0.67;;;6.00;99.90;;;;;;6300822;22;37002;-78
2023/01/19 11:39:58;;;;;;;5.03;1.20;;;6.00;99.90;;;;;;6300436;22;36318;-77
2023/01/19 11:42:27;;;;;;;4.33;1.00;;;6.00;99.90;;;;;;6304896;22;39662;-77
2023/01/19 11:44:53;;;;;;;6.17;1.30;;;5.90;99.90;;;;;;6306632;22;37465;-78
2023/01/19 11:47:41;;;;;;;5.43;1.30;;;5.80;99.90;;;;;;6304399;22;37091;-77
2023/01/19 11:50:35;;;;;;;4.80;0.83;;;5.80;99.90;;;;;;6304697;22;36138;-77
2023/01/19 11:53:08;;;;;;;3.80;1.30;;;5.70;99.90;;;;;;6309857;22;38712;-78
2023/01/19 11:55:50;;;;;;;4.37;1.00;;;5.60;99.90;;;;;;6307424;22;48772;-78
2023/01/19 11:58:17;;;;;;;3.60;1.77;;;5.50;99.90;;;;;;6304968;22;38107;-78
2023/01/19 12:00:53;;;;;;;3.83;0.97;;;5.50;99.90;;;;;;6306987;22;35906;-78
2023/01/19 12:03:25;;;;;;;4.17;0.93;;;5.60;99.90;;;;;;6303877;22;38519;-80
2023/01/19 12:05:55;;;;;;;11.32;0.80;;;5.60;99.90;;;;;;6305922;22;37075;-77
2023/01/19 12:08:29;;;;;;;4.97;0.90;;;5.60;99.90;;;;;;6311965;22;39218;-78
2023/01/19 12:10:57;;;;;;;4.93;1.10;;;5.60;99.90;;;;;;6311723;22;35877;-78
2023/01/19 12:13:26;;;;;;;5.60;1.00;;;5.50;99.90;;;;;;6306011;22;37863;-78
2023/01/19 12:15:58;;;;;;;5.07;0.90;;;5.40;99.90;;;;;;6311571;22;39994;-78
2023/01/19 12:18:28;;;;;;;4.32;0.85;;;5.40;99.90;;;;;;6313547;22;39351;-78
2023/01/19 12:20:55;;;;;;;7.97;1.50;;;5.60;99.90;;;;;;6313972;22;36070;-78
2023/01/19 12:23:24;;;;;;;6.73;1.17;;;5.80;99.90;;;;;;6314719;22;39156;-78
2023/01/19 12:26:04;;;;;;;8.03;1.13;;;6.00;99.90;;;;;;6314276;22;38238;-78
2023/01/19 12:28:35;;;;;;;5.37;1.07;;;6.20;99.90;;;;;;6310205;22;47626;-78
2023/01/19 12:31:02;;;;;;;9.43;1.10;;;6.30;99.90;;;;;;6315666;22;37295;-76
2023/01/19 12:33:27;;;;;;;7.70;1.30;;;6.40;99.90;;;;;;6310530;22;39778;-77
2023/01/19 12:36:02;;;;;;;2.63;0.70;;;6.50;99.90;;;;;;6308265;22;38167;-77
2023/01/19 12:38:47;;;;;;;3.13;1.07;;;6.60;99.90;;;;;;6295903;22;47656;-77
2023/01/19 12:41:23;;;;;;;5.57;0.80;;;6.50;99.90;;;;;;6305284;22;36215;-77
2023/01/19 12:44:08;;;;;;;6.37;0.97;;;6.20;99.90;;;;;;6309045;22;39171;-78
2023/01/19 12:46:36;;;;;;;4.20;0.93;;;5.90;99.90;;;;;;6306253;22;48232;-77
2023/01/19 12:49:26;;;;;;;8.07;1.10;;;5.80;99.90;;;;;;6308488;22;38931;-77
2023/01/19 12:52:11;;;;;;;1.87;0.57;;;5.80;99.90;;;;;;6282450;22;47604;-78
2023/01/19 12:54:41;;;;;;;2.50;0.73;;;5.70;99.90;;;;;;6298256;22;47159;-78
2023/01/19 12:57:19;;;;;;;3.13;1.00;;;5.70;99.90;;;;;;6308115;22;39416;-77
2023/01/19 12:59:45;;;;;;;4.93;0.90;;;5.60;99.90;;;;;;6310488;22;38940;-79
2023/01/19 13:02:24;;;;;;;3.60;0.97;;;5.60;99.90;;;;;;6334356;22;37059;-81
2023/01/19 13:05:30;;;;;;;6.03;0.90;;;5.60;99.90;;;;;;6337457;22;40394;-82
2023/01/19 13:08:06;;;;;;;3.47;1.17;;;5.70;99.90;;;;;;6327516;22;48103;-81
2023/01/19 13:11:01;;;;;;;6.87;0.90;;;5.80;99.90;;;;;;6329658;22;48642;-81
2023/01/19 13:13:38;;;;;;;5.03;1.47;;;6.00;99.90;;;;;;6331318;22;50387;-81
2023/01/19 13:16:17;;;;;;;4.93;1.00;;;6.10;99.90;;;;;;6331749;22;39259;-80
2023/01/19 13:18:49;;;;;;;2.90;0.83;;;6.30;99.90;;;;;;6312149;22;38691;-79
2023/01/19 13:21:35;;;;;;;2.40;0.70;;;6.30;99.90;;;;;;6317407;22;37258;-81